Time;durP1;ratioP1;P1;durP2;ratioP2;P2;SDS_P1;SDS_P2;PMS_P1;PMS_P2;Temp;Humidity;BMP_temperature;BMP_pressure;BME280_temperature;BME280_humidity;BME280_pressure;Samples;Min_cycle;Max_cycle;Signal;HPM_P1;HPM_P2
2022/08/13 00:01:21;;;;;;;5.03;2.25;;;20.70;98.80;;;;;;5064385;28;20080;-74
2022/08/13 00:03:47;;;;;;;5.03;2.22;;;20.70;98.90;;;;;;5061975;28;20045;-74
2022/08/13 00:06:14;;;;;;;3.42;2.50;;;20.70;99.10;;;;;;5060958;28;20033;-73
2022/08/13 00:08:40;;;;;;;3.25;2.03;;;20.60;99.20;;;;;;5062593;28;20056;-73
2022/08/13 00:11:07;;;;;;;4.65;2.58;;;20.50;99.30;;;;;;5064675;28;20423;-74
2022/08/13 00:13:34;;;;;;;6.22;2.35;;;20.50;99.50;;;;;;5063957;28;20403;-74
2022/08/13 00:16:01;;;;;;;2.60;2.30;;;20.50;99.60;;;;;;5060441;28;20059;-74
2022/08/13 00:18:29;;;;;;;4.35;2.38;;;20.50;99.70;;;;;;5061265;28;20128;-72
2022/08/13 00:20:58;;;;;;;6.53;2.20;;;20.50;99.80;;;;;;5053260;28;20488;-71
2022/08/13 00:23:26;;;;;;;5.55;2.50;;;20.90;99.90;;;;;;5060294;28;20036;-74
2022/08/13 00:25:57;;;;;;;6.75;2.63;;;20.40;99.90;;;;;;5063972;28;20048;-71
2022/08/13 00:28:28;;;;;;;4.38;2.28;;;20.40;99.90;;;;;;5046696;28;20113;-71
2022/08/13 00:30:59;;;;;;;4.10;1.88;;;20.30;99.90;;;;;;5052441;28;20041;-72
2022/08/13 00:33:25;;;;;;;4.75;2.15;;;20.30;99.90;;;;;;5043448;28;20600;-73
2022/08/13 00:35:52;;;;;;;4.22;2.30;;;20.30;99.90;;;;;;5063638;28;20122;-71
2022/08/13 00:38:24;;;;;;;4.20;2.17;;;20.40;99.90;;;;;;5063512;28;20122;-70
2022/08/13 00:40:53;;;;;;;5.53;2.28;;;20.20;99.90;;;;;;5043315;28;20443;-72
2022/08/13 00:43:20;;;;;;;3.78;2.13;;;20.20;99.90;;;;;;5060224;28;20128;-72
2022/08/13 00:45:47;;;;;;;5.25;2.03;;;20.20;99.90;;;;;;5062791;28;20386;-75
2022/08/13 00:50:58;;;;;;;6.65;2.42;;;20.20;99.90;;;;;;5052217;28;20036;-74
2022/08/13 00:53:25;;;;;;;5.68;2.17;;;20.10;99.90;;;;;;5060274;28;20148;-71
2022/08/13 00:55:55;;;;;;;3.92;2.13;;;20.10;99.90;;;;;;5063363;28;20044;-72
2022/08/13 00:58:22;;;;;;;3.03;2.22;;;20.10;99.90;;;;;;5063231;28;20634;-72
2022/08/13 01:00:51;;;;;;;2.80;2.17;;;20.10;99.90;;;;;;5060974;28;20471;-72
2022/08/13 01:03:18;;;;;;;6.30;2.30;;;20.10;99.90;;;;;;5060253;28;20580;-71
2022/08/13 01:05:47;;;;;;;4.30;2.40;;;20.00;99.90;;;;;;5060583;28;20060;-71
2022/08/13 01:08:16;;;;;;;2.92;2.15;;;20.00;99.90;;;;;;5045630;28;20067;-73
2022/08/13 01:10:42;;;;;;;6.53;2.70;;;20.00;99.90;;;;;;5061078;28;20098;-71
2022/08/13 01:13:11;;;;;;;2.35;2.05;;;20.00;99.90;;;;;;5041635;28;20094;-72
2022/08/13 01:15:39;;;;;;;5.70;2.50;;;20.00;99.90;;;;;;5042705;28;20033;-72
2022/08/13 01:18:06;;;;;;;4.90;2.30;;;20.00;99.90;;;;;;5045724;28;20063;-71
2022/08/13 01:20:32;;;;;;;6.53;2.53;;;19.90;99.90;;;;;;5062330;28;20060;-71
2022/08/13 01:22:58;;;;;;;3.40;2.58;;;19.90;99.90;;;;;;5060038;28;20041;-71
2022/08/13 01:25:25;;;;;;;3.10;2.55;;;19.90;99.90;;;;;;5059343;28;20662;-71
2022/08/13 01:27:52;;;;;;;9.23;2.75;;;19.90;99.90;;;;;;5062420;28;20056;-71
2022/08/13 01:30:21;;;;;;;4.60;2.78;;;19.80;99.90;;;;;;5045426;28;20052;-72
2022/08/13 01:32:47;;;;;;;3.92;2.00;;;19.80;99.90;;;;;;5059986;28;20579;-74
2022/08/13 01:35:15;;;;;;;7.95;2.70;;;19.90;99.90;;;;;;5059624;28;20063;-75
2022/08/13 01:37:42;;;;;;;5.82;2.60;;;19.80;99.90;;;;;;5061220;28;20045;-73
2022/08/13 01:40:09;;;;;;;4.80;2.67;;;19.90;99.90;;;;;;5062634;28;20115;-72
2022/08/13 01:42:44;;;;;;;4.35;2.38;;;19.60;99.90;;;;;;5062705;28;20047;-74
2022/08/13 01:45:12;;;;;;;5.53;2.45;;;19.60;99.90;;;;;;5042321;28;20072;-74
2022/08/13 01:50:30;;;;;;;3.20;2.20;;;19.60;99.90;;;;;;5063358;28;20052;-74
2022/08/13 01:53:11;;;;;;;3.50;2.70;;;19.60;99.90;;;;;;5025325;28;20452;-73
2022/08/13 01:55:42;;;;;;;5.63;2.45;;;19.50;99.90;;;;;;5040994;28;20041;-74
2022/08/13 01:58:23;;;;;;;7.78;2.95;;;19.50;99.90;;;;;;5062818;28;20098;-71
2022/08/13 02:00:55;;;;;;;4.95;2.53;;;19.50;99.90;;;;;;5059946;28;20114;-73
2022/08/13 02:03:21;;;;;;;3.45;2.33;;;20.10;99.90;;;;;;5041545;28;20049;-71
2022/08/13 02:05:48;;;;;;;5.75;2.67;;;19.50;99.90;;;;;;5060962;28;20033;-72
2022/08/13 02:08:20;;;;;;;4.70;2.75;;;19.60;99.90;;;;;;5061860;28;20044;-72
2022/08/13 02:10:47;;;;;;;11.20;2.53;;;19.50;99.90;;;;;;5060679;28;20048;-75
2022/08/13 02:13:17;;;;;;;2.58;2.35;;;19.60;99.90;;;;;;5059445;28;20112;-75
2022/08/13 02:15:45;;;;;;;3.40;2.40;;;19.60;99.90;;;;;;5041726;28;20357;-75
2022/08/13 02:18:14;;;;;;;3.47;2.20;;;19.70;99.90;;;;;;5062780;28;20412;-72
2022/08/13 02:20:40;;;;;;;7.20;2.38;;;19.60;99.90;;;;;;5043651;28;20562;-74
2022/08/13 02:23:09;;;;;;;3.70;2.30;;;19.70;99.90;;;;;;5058450;28;20081;-74
2022/08/13 02:25:36;;;;;;;3.47;2.47;;;19.60;99.90;;;;;;5041102;28;20114;-74
2022/08/13 02:28:02;;;;;;;4.90;2.25;;;19.90;99.90;;;;;;5062917;28;20120;-71
2022/08/13 02:30:29;;;;;;;3.78;2.63;;;19.70;99.90;;;;;;5061877;28;20044;-73
2022/08/13 02:32:58;;;;;;;2.35;2.13;;;19.60;99.90;;;;;;5059840;28;20412;-75
2022/08/13 02:35:24;;;;;;;3.35;2.30;;;19.60;99.90;;;;;;5059336;28;20047;-75
2022/08/13 02:37:50;;;;;;;3.42;2.08;;;19.60;99.90;;;;;;5042700;28;20029;-75
2022/08/13 02:43:00;;;;;;;;;;;19.60;99.90;;;;;;5058885;28;20086;-74
2022/08/13 02:45:27;;;;;;;2.63;2.42;;;19.50;99.90;;;;;;5058772;28;19920;-75
2022/08/13 02:47:54;;;;;;;8.65;2.60;;;19.40;99.90;;;;;;5061219;28;20033;-74
2022/08/13 02:50:21;;;;;;;5.72;3.05;;;19.40;99.90;;;;;;5061659;28;20124;-74
2022/08/13 02:52:51;;;;;;;10.00;2.80;;;19.40;99.90;;;;;;5060720;28;20495;-74
2022/08/13 02:55:22;;;;;;;5.05;2.50;;;19.30;99.90;;;;;;5059000;28;20040;-73
2022/08/13 02:57:50;;;;;;;3.45;2.70;;;19.30;99.90;;;;;;5059706;28;20090;-75
2022/08/13 03:00:19;;;;;;;3.15;2.38;;;19.30;99.90;;;;;;5062189;28;20041;-74
2022/08/13 03:02:45;;;;;;;5.28;2.10;;;19.20;99.90;;;;;;5060967;28;20045;-72
2022/08/13 03:05:17;;;;;;;5.82;2.70;;;19.20;99.90;;;;;;5058121;28;20041;-73
2022/08/13 03:07:46;;;;;;;4.43;2.60;;;19.20;99.90;;;;;;5059209;28;20053;-73
2022/08/13 03:10:14;;;;;;;4.00;2.83;;;19.20;99.90;;;;;;5062162;28;20037;-72
2022/08/13 03:12:42;;;;;;;3.83;2.60;;;19.20;99.90;;;;;;5061030;28;20049;-72
2022/08/13 03:15:11;;;;;;;5.70;2.53;;;19.20;99.90;;;;;;5058506;28;20041;-71
2022/08/13 03:17:38;;;;;;;3.85;2.42;;;19.10;99.90;;;;;;5058244;28;20455;-72
2022/08/13 03:20:07;;;;;;;6.82;2.83;;;19.10;99.90;;;;;;5049778;28;20041;-72
2022/08/13 03:22:52;;;;;;;3.80;3.08;;;19.10;99.90;;;;;;5040848;28;20041;-72
2022/08/13 03:25:20;;;;;;;7.38;2.83;;;19.10;99.90;;;;;;5052151;28;20029;-71
2022/08/13 03:27:47;;;;;;;4.65;3.38;;;19.10;99.90;;;;;;5059584;28;20405;-71
2022/08/13 03:30:14;;;;;;;3.08;2.58;;;19.00;99.90;;;;;;5061766;28;20036;-72
2022/08/13 03:32:42;;;;;;;5.15;3.60;;;19.50;99.90;;;;;;5039584;28;20457;-73
2022/08/13 03:35:14;;;;;;;6.40;2.83;;;19.00;99.90;;;;;;5041829;28;20049;-71
2022/08/13 03:37:41;;;;;;;4.10;2.90;;;18.90;99.90;;;;;;5042191;28;20075;-76
2022/08/13 03:40:10;;;;;;;7.28;3.08;;;19.00;99.90;;;;;;5044874;28;20028;-75
2022/08/13 03:42:36;;;;;;;2.67;2.47;;;18.90;99.90;;;;;;5045523;28;20045;-73
2022/08/13 03:45:03;;;;;;;3.92;3.25;;;19.00;99.90;;;;;;5042272;28;20044;-72
2022/08/13 03:47:30;;;;;;;3.63;3.08;;;18.90;99.90;;;;;;5041241;28;20045;-72
2022/08/13 03:49:57;;;;;;;5.18;3.22;;;18.90;99.90;;;;;;5044369;28;20037;-72
2022/08/13 03:52:33;;;;;;;3.10;2.80;;;18.90;99.90;;;;;;5044462;28;20037;-74
2022/08/13 03:55:00;;;;;;;5.47;2.20;;;18.90;99.90;;;;;;5042503;28;20045;-73
2022/08/13 03:57:26;;;;;;;3.38;2.60;;;18.90;99.90;;;;;;5040766;28;20046;-74
2022/08/13 03:59:52;;;;;;;4.93;3.00;;;18.80;99.90;;;;;;5043394;28;20041;-75
2022/08/13 04:02:18;;;;;;;4.72;3.25;;;18.80;99.90;;;;;;5043084;28;20037;-74
2022/08/13 04:04:46;;;;;;;4.30;2.60;;;18.80;99.90;;;;;;5044789;28;20051;-74
2022/08/13 04:07:16;;;;;;;6.47;2.80;;;19.10;99.90;;;;;;5041030;28;20350;-75
2022/08/13 04:09:43;;;;;;;7.28;2.38;;;18.70;99.90;;;;;;5040432;28;20068;-73
2022/08/13 04:12:11;;;;;;;4.10;2.90;;;18.60;99.90;;;;;;5043853;28;20029;-74
2022/08/13 04:14:43;;;;;;;3.63;3.13;;;18.90;99.90;;;;;;5044436;28;20052;-74
2022/08/13 04:17:13;;;;;;;7.88;3.13;;;18.60;99.90;;;;;;5033593;28;20041;-72
2022/08/13 04:19:42;;;;;;;6.00;3.03;;;18.60;99.90;;;;;;5042418;28;20037;-75
2022/08/13 04:22:13;;;;;;;4.97;3.33;;;18.50;99.90;;;;;;5032849;28;20453;-74
2022/08/13 04:24:39;;;;;;;7.55;3.83;;;18.50;99.90;;;;;;5040254;28;20048;-75
2022/08/13 04:27:05;;;;;;;4.82;3.10;;;18.60;99.90;;;;;;5044256;28;20045;-76
2022/08/13 04:29:32;;;;;;;3.92;3.05;;;18.40;99.90;;;;;;5043939;28;20075;-73
2022/08/13 04:31:59;;;;;;;3.35;3.08;;;18.40;99.90;;;;;;5048933;28;20052;-75
2022/08/13 04:34:28;;;;;;;5.55;3.60;;;18.40;99.90;;;;;;5061449;28;20045;-75
2022/08/13 04:36:54;;;;;;;6.30;3.35;;;18.30;99.90;;;;;;5061600;28;20103;-76
2022/08/13 04:39:20;;;;;;;6.65;3.65;;;18.30;99.90;;;;;;5046572;28;20040;-75
2022/08/13 04:41:46;;;;;;;4.43;3.10;;;18.30;99.90;;;;;;5063986;28;20041;-75
2022/08/13 04:44:12;;;;;;;6.03;3.03;;;18.50;99.90;;;;;;5029567;28;20048;-72
2022/08/13 04:46:39;;;;;;;3.17;2.97;;;18.30;99.90;;;;;;5046389;28;20105;-71
2022/08/13 04:49:05;;;;;;;4.55;2.70;;;18.30;99.90;;;;;;5061122;28;20560;-73
2022/08/13 04:51:34;;;;;;;7.32;3.70;;;18.80;99.90;;;;;;5060183;28;20385;-73
2022/08/13 04:54:01;;;;;;;4.22;3.05;;;18.60;99.90;;;;;;5062977;28;20405;-73
2022/08/13 04:56:27;;;;;;;3.65;3.40;;;18.30;99.90;;;;;;5063093;28;20116;-72
2022/08/13 04:58:52;;;;;;;5.95;3.03;;;18.30;99.90;;;;;;5044856;28;20487;-71
2022/08/13 05:01:18;;;;;;;6.07;3.25;;;18.30;99.90;;;;;;5060410;28;20120;-72
2022/08/13 05:03:47;;;;;;;5.38;3.10;;;18.30;99.90;;;;;;5060023;28;20085;-72
2022/08/13 05:06:18;;;;;;;4.68;3.05;;;18.30;99.90;;;;;;5034814;28;20124;-74
2022/08/13 05:08:48;;;;;;;6.25;2.95;;;18.30;99.90;;;;;;5060475;28;20128;-75
2022/08/13 05:11:14;;;;;;;7.13;3.53;;;18.20;99.90;;;;;;5051909;28;20041;-74
2022/08/13 05:13:43;;;;;;;4.47;2.35;;;18.20;99.90;;;;;;5025935;28;20055;-75
2022/08/13 05:16:17;;;;;;;6.45;3.45;;;18.40;99.90;;;;;;5045457;28;20545;-72
2022/08/13 05:18:54;;;;;;;3.97;2.70;;;18.20;99.90;;;;;;5045472;28;20044;-72
2022/08/13 05:21:22;;;;;;;8.45;3.05;;;18.20;99.90;;;;;;5053078;28;20037;-71
2022/08/13 05:23:53;;;;;;;6.07;3.00;;;18.20;99.90;;;;;;5060195;28;20094;-72
2022/08/13 05:26:31;;;;;;;4.05;2.55;;;18.30;99.90;;;;;;5062624;28;20080;-71
2022/08/13 05:29:04;;;;;;;2.95;2.72;;;18.30;99.90;;;;;;5062166;28;20055;-72
2022/08/13 05:31:30;;;;;;;2.65;2.42;;;18.30;99.90;;;;;;5059785;28;20535;-71
2022/08/13 05:33:57;;;;;;;6.82;2.63;;;18.50;99.90;;;;;;5061119;28;20041;-71
2022/08/13 05:36:28;;;;;;;3.10;2.80;;;18.40;99.90;;;;;;5028588;28;20112;-72
2022/08/13 05:38:55;;;;;;;2.60;2.03;;;18.40;99.90;;;;;;5061717;28;20528;-71
2022/08/13 05:41:23;;;;;;;4.57;2.28;;;18.40;99.90;;;;;;5059779;28;20497;-71
2022/08/13 05:43:51;;;;;;;3.40;2.08;;;18.50;99.90;;;;;;5060293;28;20060;-76
2022/08/13 05:46:17;;;;;;;6.03;2.28;;;18.60;99.90;;;;;;5062362;28;20110;-75
2022/08/13 05:48:56;;;;;;;3.80;2.40;;;18.70;99.90;;;;;;5063227;28;20044;-75
2022/08/13 05:51:31;;;;;;;3.88;2.10;;;18.60;99.90;;;;;;5052553;28;20056;-74
2022/08/13 05:53:59;;;;;;;5.50;1.98;;;18.70;99.90;;;;;;5060331;28;20409;-74
2022/08/13 05:56:26;;;;;;;5.93;2.38;;;18.70;99.90;;;;;;5062361;28;20033;-74
2022/08/13 05:58:52;;;;;;;2.40;1.88;;;18.70;99.90;;;;;;5045162;28;20403;-74
2022/08/13 06:04:10;;;;;;;4.68;2.10;;;19.10;99.90;;;;;;5061553;28;20049;-75
2022/08/13 06:06:36;;;;;;;5.25;2.08;;;18.80;99.90;;;;;;5062848;28;20044;-72
2022/08/13 06:09:04;;;;;;;2.75;2.10;;;18.80;99.90;;;;;;5060612;28;20484;-74
2022/08/13 06:11:30;;;;;;;5.63;2.45;;;18.90;99.90;;;;;;5059556;28;20041;-74
2022/08/13 06:13:57;;;;;;;4.00;1.92;;;18.90;99.90;;;;;;5059853;28;20413;-74
2022/08/13 06:16:25;;;;;;;1.63;1.52;;;19.20;99.90;;;;;;5062723;28;20090;-75
2022/08/13 06:18:52;;;;;;;4.00;2.15;;;19.00;99.90;;;;;;5062755;28;20044;-74
2022/08/13 06:21:18;;;;;;;6.82;1.88;;;19.10;99.90;;;;;;5050659;28;20048;-70
2022/08/13 06:23:45;;;;;;;6.05;1.70;;;19.10;99.90;;;;;;5059102;28;20068;-74
2022/08/13 06:26:19;;;;;;;3.97;1.50;;;19.10;99.90;;;;;;5061474;28;20559;-74
2022/08/13 06:28:46;;;;;;;2.95;1.60;;;19.10;99.90;;;;;;5062315;28;20053;-72
2022/08/13 06:31:16;;;;;;;3.25;1.65;;;19.10;99.90;;;;;;5059759;28;20569;-73
2022/08/13 06:33:43;;;;;;;6.32;2.15;;;19.20;99.90;;;;;;5059285;28;20075;-73
2022/08/13 06:36:11;;;;;;;4.05;1.60;;;19.30;99.90;;;;;;5060525;28;20052;-74
2022/08/13 06:38:48;;;;;;;4.32;2.10;;;19.30;99.90;;;;;;5062707;28;20052;-72
2022/08/13 06:41:15;;;;;;;1.83;1.55;;;19.40;99.90;;;;;;5059664;28;20059;-71
2022/08/13 06:43:49;;;;;;;2.35;1.70;;;19.50;99.90;;;;;;5058400;28;20033;-74
2022/08/13 06:46:17;;;;;;;5.80;1.83;;;19.50;99.90;;;;;;5044020;28;20041;-71
2022/08/13 06:48:43;;;;;;;3.30;1.75;;;19.60;99.90;;;;;;5062515;28;20048;-71
2022/08/13 06:51:11;;;;;;;3.08;1.38;;;19.60;99.90;;;;;;5042049;28;20040;-71
2022/08/13 06:53:42;;;;;;;4.60;1.85;;;19.80;99.90;;;;;;5058997;28;20413;-71
2022/08/13 06:56:13;;;;;;;3.30;1.77;;;19.90;99.90;;;;;;5059607;28;20091;-70
2022/08/13 06:58:42;;;;;;;5.53;1.92;;;19.90;99.90;;;;;;5062288;28;20049;-71
2022/08/13 07:01:09;;;;;;;5.93;1.40;;;20.00;99.90;;;;;;5060421;28;20481;-71
2022/08/13 07:03:36;;;;;;;2.97;1.58;;;20.00;99.90;;;;;;5058311;28;20045;-71
2022/08/13 07:06:02;;;;;;;3.45;1.52;;;20.00;99.90;;;;;;5059348;28;20405;-71
2022/08/13 07:08:29;;;;;;;3.15;1.20;;;20.10;99.90;;;;;;5063957;28;20044;-74
2022/08/13 07:13:43;;;;;;;2.45;1.50;;;20.20;99.90;;;;;;5057224;28;20074;-74
2022/08/13 07:16:11;;;;;;;1.50;1.33;;;20.20;99.90;;;;;;5064115;28;20040;-73
2022/08/13 07:18:37;;;;;;;3.35;1.40;;;20.30;99.90;;;;;;5065305;28;20522;-71
2022/08/13 07:21:09;;;;;;;2.97;1.35;;;20.50;99.90;;;;;;5047199;28;20037;-71
2022/08/13 07:23:35;;;;;;;4.30;1.55;;;20.50;99.90;;;;;;5062371;28;20492;-72
2022/08/13 07:26:02;;;;;;;1.10;1.00;;;21.20;99.90;;;;;;5061766;28;20195;-72
2022/08/13 07:28:29;;;;;;;3.35;1.38;;;20.80;99.90;;;;;;5047768;28;20048;-71
2022/08/13 07:30:56;;;;;;;1.85;1.17;;;20.90;99.90;;;;;;5063446;28;20044;-72
2022/08/13 07:33:22;;;;;;;2.85;1.20;;;20.90;99.90;;;;;;5062144;28;20118;-71
2022/08/13 07:35:48;;;;;;;5.22;1.35;;;21.00;99.90;;;;;;5044071;28;20041;-72
2022/08/13 07:38:15;;;;;;;3.50;1.23;;;21.10;99.90;;;;;;5063643;28;20087;-73
2022/08/13 07:40:44;;;;;;;2.60;1.33;;;21.20;99.90;;;;;;5065311;28;20043;-71
2022/08/13 07:43:12;;;;;;;6.30;1.27;;;21.30;99.90;;;;;;5045966;28;20162;-72
2022/08/13 07:45:39;;;;;;;2.30;0.93;;;21.40;99.90;;;;;;5061237;28;20029;-72
2022/08/13 07:48:06;;;;;;;2.85;1.45;;;21.50;99.90;;;;;;5062890;28;20033;-72
2022/08/13 07:50:33;;;;;;;1.67;1.25;;;21.50;99.90;;;;;;5064774;28;20044;-75
2022/08/13 07:53:00;;;;;;;5.20;1.20;;;21.70;99.90;;;;;;5047525;28;20041;-75
2022/08/13 07:55:27;;;;;;;6.07;1.48;;;21.80;99.90;;;;;;5053507;28;20052;-74
2022/08/13 07:57:54;;;;;;;3.00;1.00;;;21.90;99.90;;;;;;5061428;28;20079;-75
2022/08/13 08:00:26;;;;;;;3.95;1.00;;;21.90;99.90;;;;;;5046569;28;20057;-75
2022/08/13 08:02:57;;;;;;;3.22;0.90;;;21.90;99.90;;;;;;5065183;28;20127;-75
2022/08/13 08:05:24;;;;;;;7.93;1.02;;;22.00;99.60;;;;;;5061194;28;20103;-74
2022/08/13 08:07:53;;;;;;;2.65;1.17;;;22.20;99.50;;;;;;5061779;28;20045;-74
2022/08/13 08:10:20;;;;;;;2.95;1.00;;;22.20;99.20;;;;;;5064259;28;20060;-75
2022/08/13 08:12:46;;;;;;;3.40;0.80;;;22.30;99.10;;;;;;5064246;28;20495;-75
2022/08/13 08:15:12;;;;;;;2.85;0.73;;;22.40;98.90;;;;;;5045720;28;20064;-74
2022/08/13 08:17:40;;;;;;;3.03;0.82;;;22.50;98.40;;;;;;5061409;28;20037;-75
2022/08/13 08:20:07;;;;;;;2.20;0.77;;;22.60;97.90;;;;;;5060557;28;20044;-75
2022/08/13 08:22:33;;;;;;;1.48;0.57;;;22.70;97.70;;;;;;5064611;28;20048;-74
2022/08/13 08:25:00;;;;;;;0.73;0.55;;;22.80;97.50;;;;;;5064726;28;20115;-75
2022/08/13 08:27:25;;;;;;;4.93;0.77;;;22.90;97.10;;;;;;5061191;28;20472;-73
2022/08/13 08:29:52;;;;;;;4.00;0.75;;;23.10;97.00;;;;;;5061269;28;20115;-76
2022/08/13 08:32:19;;;;;;;2.38;0.88;;;23.10;96.80;;;;;;5065846;28;20493;-75
2022/08/13 08:34:47;;;;;;;4.45;0.85;;;23.30;96.70;;;;;;5064203;28;20045;-76
2022/08/13 08:42:53;;;;;;;3.80;0.80;;;23.60;96.00;;;;;;5055505;28;20045;-76
2022/08/13 08:45:20;;;;;;;6.13;0.70;;;23.70;95.70;;;;;;5062763;28;20041;-76
2022/08/13 08:47:49;;;;;;;4.75;0.70;;;23.70;95.40;;;;;;5045816;28;20132;-72
2022/08/13 08:50:24;;;;;;;2.95;0.65;;;23.90;94.70;;;;;;5063236;28;20107;-73
2022/08/13 08:55:38;;;;;;;5.95;0.80;;;24.10;94.90;;;;;;5052337;28;20045;-74
2022/08/13 08:58:06;;;;;;;2.40;0.45;;;24.20;94.80;;;;;;5042746;28;20272;-75
2022/08/13 09:00:39;;;;;;;4.32;0.70;;;24.20;94.30;;;;;;5063821;28;20452;-75
2022/08/13 09:03:08;;;;;;;1.63;0.60;;;24.30;94.00;;;;;;5046126;28;20126;-72
2022/08/13 09:05:35;;;;;;;5.30;0.70;;;24.40;93.90;;;;;;5052132;28;20473;-75
2022/08/13 09:08:03;;;;;;;4.82;0.52;;;24.20;93.50;;;;;;5059915;28;20037;-73
2022/08/13 09:10:34;;;;;;;1.33;0.57;;;24.50;93.10;;;;;;5060531;28;20119;-75
2022/08/13 09:13:02;;;;;;;1.33;0.57;;;24.60;92.60;;;;;;5060350;28;20037;-74
2022/08/13 09:15:30;;;;;;;5.40;0.88;;;24.80;92.40;;;;;;5027353;28;20499;-75
2022/08/13 09:17:58;;;;;;;4.07;0.70;;;24.90;92.00;;;;;;5045976;28;20040;-73
2022/08/13 09:20:26;;;;;;;1.35;0.45;;;24.90;92.00;;;;;;5061782;28;20041;-75
2022/08/13 09:23:07;;;;;;;0.73;0.30;;;25.00;91.70;;;;;;5059586;28;20052;-75
2022/08/13 09:25:34;;;;;;;3.17;0.47;;;25.10;90.40;;;;;;5062878;28;20040;-74
2022/08/13 09:28:02;;;;;;;0.80;0.50;;;25.20;90.20;;;;;;5045874;28;20158;-74
2022/08/13 09:30:27;;;;;;;2.80;0.52;;;25.40;89.60;;;;;;5060039;28;20484;-74
2022/08/13 09:32:56;;;;;;;3.65;0.63;;;25.30;89.10;;;;;;5059523;28;20055;-71
2022/08/13 09:35:25;;;;;;;3.65;0.68;;;25.30;89.20;;;;;;5061043;28;20052;-71
2022/08/13 09:37:56;;;;;;;2.67;0.57;;;25.40;89.00;;;;;;5062581;28;20049;-71
2022/08/13 09:40:26;;;;;;;1.48;0.90;;;25.50;89.00;;;;;;5061884;28;20567;-73
2022/08/13 09:43:06;;;;;;;3.92;0.90;;;25.60;88.90;;;;;;5059868;28;20053;-74
2022/08/13 09:45:34;;;;;;;3.10;0.57;;;25.70;89.20;;;;;;5062066;28;20049;-72
2022/08/13 09:48:02;;;;;;;5.70;0.60;;;25.80;86.20;;;;;;5063173;28;20032;-71
2022/08/13 09:50:28;;;;;;;0.82;0.35;;;25.80;86.90;;;;;;5060428;28;20044;-71
2022/08/13 09:52:56;;;;;;;2.08;0.40;;;25.90;86.40;;;;;;5059667;28;20113;-74
2022/08/13 09:55:23;;;;;;;1.27;0.50;;;26.00;86.20;;;;;;5064437;28;20286;-74
2022/08/13 09:57:50;;;;;;;1.25;0.55;;;26.10;85.90;;;;;;5063127;28;20170;-73
2022/08/13 10:00:21;;;;;;;1.73;0.65;;;26.20;84.70;;;;;;5062967;28;20040;-74
2022/08/13 10:02:50;;;;;;;2.47;0.55;;;26.20;84.60;;;;;;5059518;28;20037;-73
2022/08/13 10:05:18;;;;;;;6.18;0.80;;;26.30;83.80;;;;;;5058634;28;20045;-75
2022/08/13 10:07:44;;;;;;;1.73;0.70;;;26.40;83.60;;;;;;5033818;28;20041;-75
2022/08/13 10:10:10;;;;;;;3.15;0.50;;;26.40;83.70;;;;;;5059499;28;20041;-75
2022/08/13 10:12:36;;;;;;;1.65;0.43;;;26.50;83.80;;;;;;5061372;28;20037;-73
2022/08/13 10:15:02;;;;;;;2.28;0.70;;;26.60;83.40;;;;;;5062506;28;20063;-74
2022/08/13 10:17:44;;;;;;;2.85;0.60;;;26.60;83.30;;;;;;5043701;28;20048;-75
2022/08/13 10:20:11;;;;;;;5.88;0.60;;;26.70;83.00;;;;;;5058725;28;20037;-73
2022/08/13 10:22:36;;;;;;;3.83;0.70;;;26.80;81.80;;;;;;5061637;28;20393;-76
2022/08/13 10:25:02;;;;;;;3.22;0.50;;;26.90;81.70;;;;;;5062593;28;20036;-75
2022/08/13 10:27:28;;;;;;;6.13;0.68;;;27.00;80.90;;;;;;5060723;28;20048;-75
2022/08/13 10:29:53;;;;;;;0.93;0.55;;;27.00;80.90;;;;;;5041336;28;20045;-72
2022/08/13 10:32:19;;;;;;;2.75;0.65;;;27.10;80.50;;;;;;5058316;28;20048;-71
2022/08/13 10:34:45;;;;;;;3.65;0.60;;;27.10;80.00;;;;;;5062139;28;20036;-74
2022/08/13 10:37:12;;;;;;;2.78;0.70;;;27.30;79.60;;;;;;5062848;28;20055;-71
2022/08/13 10:39:38;;;;;;;0.65;0.60;;;27.30;79.10;;;;;;5059518;28;20471;-74
2022/08/13 10:42:04;;;;;;;0.82;0.50;;;27.50;78.70;;;;;;5059403;28;20477;-74
2022/08/13 10:44:29;;;;;;;8.10;0.50;;;27.60;78.40;;;;;;5064398;28;20121;-71
2022/08/13 10:46:55;;;;;;;0.93;0.30;;;27.60;77.10;;;;;;5065764;28;20403;-73
2022/08/13 10:49:20;;;;;;;2.25;0.47;;;27.70;76.50;;;;;;5066556;28;20052;-75
2022/08/13 10:51:46;;;;;;;3.08;0.40;;;27.80;76.60;;;;;;5063289;28;20032;-75
2022/08/13 10:54:12;;;;;;;3.90;0.80;;;27.70;76.40;;;;;;5044622;28;20055;-75
2022/08/13 10:56:37;;;;;;;2.47;0.52;;;27.80;77.00;;;;;;5064889;28;20045;-72
2022/08/13 10:59:04;;;;;;;0.22;0.22;;;27.90;76.40;;;;;;5066584;28;20036;-73
2022/08/13 11:01:31;;;;;;;2.50;0.50;;;28.00;75.40;;;;;;5046524;28;20423;-72
2022/08/13 11:04:01;;;;;;;1.65;0.50;;;28.10;75.40;;;;;;5028439;28;20076;-72
2022/08/13 11:06:27;;;;;;;2.97;0.68;;;28.20;75.20;;;;;;5062800;28;20044;-72
2022/08/13 11:08:54;;;;;;;2.17;0.60;;;28.30;74.60;;;;;;5065547;28;20485;-72
2022/08/13 11:11:21;;;;;;;1.77;0.63;;;28.40;73.60;;;;;;5066293;28;20284;-72
2022/08/13 11:13:47;;;;;;;2.72;0.50;;;28.50;73.40;;;;;;5062854;28;20064;-71
2022/08/13 11:19:18;;;;;;;1.08;0.38;;;28.60;73.70;;;;;;5015276;28;20045;-72
2022/08/13 11:21:44;;;;;;;0.85;0.82;;;28.80;73.30;;;;;;5062723;28;20052;-72
2022/08/13 11:24:11;;;;;;;0.90;0.65;;;28.80;72.60;;;;;;5062628;28;20052;-72
2022/08/13 11:26:37;;;;;;;2.38;0.50;;;28.90;73.00;;;;;;5063530;28;20090;-75
2022/08/13 11:29:03;;;;;;;1.38;0.50;;;28.90;72.40;;;;;;5065069;28;20045;-74
2022/08/13 11:31:29;;;;;;;2.17;0.38;;;29.00;72.80;;;;;;5065209;28;20044;-74
2022/08/13 11:33:55;;;;;;;2.47;0.60;;;29.20;72.50;;;;;;5062501;28;20045;-72
2022/08/13 11:36:20;;;;;;;5.65;0.47;;;29.40;71.60;;;;;;5061487;28;20388;-71
2022/08/13 11:38:46;;;;;;;2.13;0.65;;;29.50;71.50;;;;;;5064590;28;20123;-72
2022/08/13 11:41:13;;;;;;;3.30;0.45;;;29.60;70.30;;;;;;5065618;28;20045;-72
2022/08/13 11:43:38;;;;;;;6.00;0.55;;;29.70;69.40;;;;;;5063427;28;20048;-72
2022/08/13 11:46:04;;;;;;;4.22;0.43;;;29.70;69.60;;;;;;5043862;28;20051;-71
2022/08/13 11:48:29;;;;;;;2.17;0.43;;;29.80;69.50;;;;;;5061935;28;20036;-72
2022/08/13 11:50:56;;;;;;;1.25;0.30;;;29.90;69.70;;;;;;5047045;28;20037;-72
2022/08/13 11:53:22;;;;;;;6.55;0.50;;;30.00;68.40;;;;;;5065426;28;20105;-71
2022/08/13 11:55:48;;;;;;;1.33;0.82;;;30.10;69.00;;;;;;5061865;28;20052;-73
2022/08/13 11:58:14;;;;;;;1.27;0.60;;;30.20;68.90;;;;;;5061343;28;20044;-72
2022/08/13 12:00:42;;;;;;;0.68;0.45;;;30.30;68.00;;;;;;5044945;28;20041;-74
2022/08/13 12:03:08;;;;;;;3.70;0.43;;;30.30;67.60;;;;;;5047098;28;20037;-74
2022/08/13 12:05:34;;;;;;;2.10;0.50;;;30.30;67.50;;;;;;5063994;28;20556;-72
2022/08/13 12:08:00;;;;;;;8.48;0.75;;;30.40;67.90;;;;;;5061770;28;20037;-74
2022/08/13 12:10:26;;;;;;;4.63;0.60;;;30.60;68.10;;;;;;5043965;28;20400;-73
2022/08/13 12:12:52;;;;;;;3.05;0.35;;;30.70;67.60;;;;;;5063748;28;20048;-74
2022/08/13 12:15:18;;;;;;;1.40;0.40;;;30.80;66.90;;;;;;5064687;28;20047;-74
2022/08/13 12:17:48;;;;;;;1.30;0.70;;;30.90;67.00;;;;;;5062733;28;20470;-75
2022/08/13 12:20:16;;;;;;;4.88;0.50;;;31.00;66.80;;;;;;5061502;28;20040;-75
2022/08/13 12:22:42;;;;;;;0.85;0.43;;;31.10;65.90;;;;;;5062519;28;20055;-75
2022/08/13 12:25:10;;;;;;;0.68;0.40;;;31.10;65.00;;;;;;5064081;28;20029;-75
2022/08/13 12:27:36;;;;;;;0.50;0.50;;;31.20;64.30;;;;;;5064552;28;20048;-74
2022/08/13 12:30:03;;;;;;;2.03;0.47;;;31.20;64.50;;;;;;5061456;28;20072;-74
2022/08/13 12:32:28;;;;;;;4.35;0.40;;;31.30;63.50;;;;;;5042570;28;20084;-73
2022/08/13 12:34:54;;;;;;;3.55;0.68;;;31.30;63.60;;;;;;5063726;28;20532;-75
2022/08/13 12:37:23;;;;;;;2.78;0.50;;;31.40;63.20;;;;;;5064811;28;20040;-73
2022/08/13 12:39:51;;;;;;;2.28;0.50;;;31.40;62.80;;;;;;5065364;28;20036;-72
2022/08/13 12:42:17;;;;;;;2.50;0.50;;;31.50;62.80;;;;;;5061221;28;20074;-75
2022/08/13 12:44:42;;;;;;;4.00;0.60;;;31.50;63.10;;;;;;5043619;28;20036;-74
2022/08/13 12:47:08;;;;;;;1.75;0.50;;;31.60;62.30;;;;;;5063780;28;20047;-72
2022/08/13 12:49:33;;;;;;;0.75;0.50;;;31.70;62.30;;;;;;5064192;28;20040;-74
2022/08/13 12:51:59;;;;;;;0.82;0.40;;;31.80;61.60;;;;;;5061548;28;20495;-73
2022/08/13 12:54:27;;;;;;;2.40;0.60;;;31.80;60.80;;;;;;5042193;28;20146;-74
2022/08/13 12:56:52;;;;;;;2.08;0.60;;;31.80;60.80;;;;;;5045251;28;20567;-74
2022/08/13 12:59:20;;;;;;;3.22;0.77;;;31.80;61.00;;;;;;5064034;28;20131;-72
2022/08/13 13:01:52;;;;;;;3.35;0.50;;;31.80;60.70;;;;;;5062190;28;20047;-71
2022/08/13 13:04:18;;;;;;;0.95;0.32;;;31.80;60.70;;;;;;5060825;28;20041;-71
2022/08/13 13:06:44;;;;;;;1.48;0.45;;;31.90;60.80;;;;;;5060685;28;20408;-71
2022/08/13 13:09:09;;;;;;;1.35;0.40;;;32.10;61.20;;;;;;5063152;28;20038;-72
2022/08/13 13:11:36;;;;;;;2.20;0.50;;;32.00;60.50;;;;;;5063817;28;20064;-72
2022/08/13 13:14:02;;;;;;;2.33;0.40;;;32.00;60.80;;;;;;5060113;28;20098;-71
2022/08/13 13:16:28;;;;;;;3.53;0.50;;;32.00;60.80;;;;;;5059959;28;20041;-71